sensor_id;sensor_type;location;lat;lon;timestamp;pressure;altitude;pressure_sealevel;temperature;humidity
73558;BME280;61829;53.286;10.434;2022-10-17T00:01:12;101776.63;;;11.48;88.34
73558;BME280;61829;53.286;10.434;2022-10-17T00:03:38;101774.09;;;11.46;88.13
73558;BME280;61829;53.286;10.434;2022-10-17T00:06:10;101758.75;;;11.47;88.31
73558;BME280;61829;53.286;10.434;2022-10-17T00:08:37;101749.63;;;11.48;88.08
73558;BME280;61829;53.286;10.434;2022-10-17T00:11:12;101755.53;;;11.52;87.74
73558;BME280;61829;53.286;10.434;2022-10-17T00:13:39;101756.41;;;11.52;88.64
73558;BME280;61829;53.286;10.434;2022-10-17T00:16:05;101753.34;;;11.55;88.43
73558;BME280;61829;53.286;10.434;2022-10-17T00:18:31;101750.31;;;11.58;88.75
73558;BME280;61829;53.286;10.434;2022-10-17T00:20:57;101756.38;;;11.60;89.28
73558;BME280;61829;53.286;10.434;2022-10-17T00:23:23;101751.66;;;11.62;89.30
73558;BME280;61829;53.286;10.434;2022-10-17T00:26:04;101754.19;;;11.64;89.35
73558;BME280;61829;53.286;10.434;2022-10-17T00:28:30;101754.69;;;11.67;89.70
73558;BME280;61829;53.286;10.434;2022-10-17T00:30:58;101761.78;;;11.68;89.68
73558;BME280;61829;53.286;10.434;2022-10-17T00:33:25;101770.56;;;11.71;89.64
73558;BME280;61829;53.286;10.434;2022-10-17T00:36:08;101770.56;;;11.71;89.79
73558;BME280;61829;53.286;10.434;2022-10-17T00:38:35;101763.28;;;11.71;90.46
73558;BME280;61829;53.286;10.434;2022-10-17T00:41:02;101764.81;;;11.74;89.73
73558;BME280;61829;53.286;10.434;2022-10-17T00:43:46;101780.34;;;11.72;89.48
73558;BME280;61829;53.286;10.434;2022-10-17T00:46:13;101779.69;;;11.69;88.67
73558;BME280;61829;53.286;10.434;2022-10-17T00:48:40;101787.09;;;11.67;88.44
73558;BME280;61829;53.286;10.434;2022-10-17T00:51:06;101790.81;;;11.66;88.36
73558;BME280;61829;53.286;10.434;2022-10-17T00:53:34;101781.69;;;11.67;89.04
73558;BME280;61829;53.286;10.434;2022-10-17T00:56:01;101775.94;;;11.62;89.11
73558;BME280;61829;53.286;10.434;2022-10-17T00:58:27;101780.16;;;11.57;88.44
73558;BME280;61829;53.286;10.434;2022-10-17T01:00:53;101774.78;;;11.57;88.64
73558;BME280;61829;53.286;10.434;2022-10-17T01:03:21;101775.25;;;11.60;88.82
73558;BME280;61829;53.286;10.434;2022-10-17T01:05:47;101769.56;;;11.63;88.57
73558;BME280;61829;53.286;10.434;2022-10-17T01:08:14;101769.38;;;11.65;88.59
73558;BME280;61829;53.286;10.434;2022-10-17T01:13:52;101759.91;;;11.69;89.16
73558;BME280;61829;53.286;10.434;2022-10-17T01:35:11;101745.38;;;12.11;89.07
73558;BME280;61829;53.286;10.434;2022-10-17T01:37:46;101747.09;;;12.12;88.86
73558;BME280;61829;53.286;10.434;2022-10-17T01:40:26;101747.56;;;12.16;88.96
73558;BME280;61829;53.286;10.434;2022-10-17T01:43:02;101747.09;;;12.12;89.08
73558;BME280;61829;53.286;10.434;2022-10-17T01:45:41;101748.91;;;12.11;89.18
73558;BME280;61829;53.286;10.434;2022-10-17T01:48:21;101736.28;;;12.12;88.98
73558;BME280;61829;53.286;10.434;2022-10-17T01:50:56;101750.44;;;12.14;88.88
73558;BME280;61829;53.286;10.434;2022-10-17T01:53:32;101747.38;;;12.17;88.68
73558;BME280;61829;53.286;10.434;2022-10-17T01:56:02;101740.16;;;12.18;89.02
73558;BME280;61829;53.286;10.434;2022-10-17T01:58:44;101741.66;;;12.20;88.65
73558;BME280;61829;53.286;10.434;2022-10-17T02:01:12;101741.66;;;12.20;88.62
73558;BME280;61829;53.286;10.434;2022-10-17T02:03:39;101751.59;;;12.20;88.43
73558;BME280;61829;53.286;10.434;2022-10-17T02:06:08;101753.13;;;12.22;88.64
73558;BME280;61829;53.286;10.434;2022-10-17T02:08:48;101746.53;;;12.25;88.28
73558;BME280;61829;53.286;10.434;2022-10-17T02:14:12;101753.28;;;12.29;87.98
73558;BME280;61829;53.286;10.434;2022-10-17T02:16:56;101743.66;;;12.26;88.23
73558;BME280;61829;53.286;10.434;2022-10-17T02:22:37;101739.31;;;12.09;88.17
73558;BME280;61829;53.286;10.434;2022-10-17T02:27:51;101731.72;;;12.04;88.26
73558;BME280;61829;53.286;10.434;2022-10-17T02:30:34;101740.19;;;12.01;88.68
73558;BME280;61829;53.286;10.434;2022-10-17T02:33:21;101735.28;;;11.97;88.41
73558;BME280;61829;53.286;10.434;2022-10-17T02:35:52;101733.41;;;11.97;88.65
73558;BME280;61829;53.286;10.434;2022-10-17T02:38:19;101726.34;;;11.96;88.73
73558;BME280;61829;53.286;10.434;2022-10-17T02:40:49;101725.50;;;11.96;89.00
73558;BME280;61829;53.286;10.434;2022-10-17T02:43:16;101728.00;;;11.97;88.77
73558;BME280;61829;53.286;10.434;2022-10-17T02:45:43;101725.16;;;11.99;88.98
73558;BME280;61829;53.286;10.434;2022-10-17T02:48:26;101723.97;;;12.01;88.60
73558;BME280;61829;53.286;10.434;2022-10-17T02:56:36;101721.94;;;12.03;88.71
73558;BME280;61829;53.286;10.434;2022-10-17T02:59:08;101716.03;;;12.00;89.12
73558;BME280;61829;53.286;10.434;2022-10-17T03:01:36;101731.75;;;11.96;89.06
73558;BME280;61829;53.286;10.434;2022-10-17T03:04:08;101721.28;;;11.93;88.82
73558;BME280;61829;53.286;10.434;2022-10-17T03:06:34;101726.19;;;11.89;88.88
73558;BME280;61829;53.286;10.434;2022-10-17T03:09:02;101716.72;;;11.85;89.06
73558;BME280;61829;53.286;10.434;2022-10-17T03:11:28;101715.19;;;11.83;88.89
73558;BME280;61829;53.286;10.434;2022-10-17T03:13:54;101713.00;;;11.78;88.46
73558;BME280;61829;53.286;10.434;2022-10-17T03:16:20;101709.13;;;11.73;88.27
73558;BME280;61829;53.286;10.434;2022-10-17T03:18:46;101701.19;;;11.71;88.92
73558;BME280;61829;53.286;10.434;2022-10-17T03:21:15;101708.78;;;11.67;89.55
73558;BME280;61829;53.286;10.434;2022-10-17T03:23:41;101703.75;;;11.64;89.82
73558;BME280;61829;53.286;10.434;2022-10-17T03:26:07;101695.78;;;11.63;89.89
73558;BME280;61829;53.286;10.434;2022-10-17T03:28:34;101696.31;;;11.58;89.89
73558;BME280;61829;53.286;10.434;2022-10-17T03:31:05;101700.88;;;11.58;89.88
73558;BME280;61829;53.286;10.434;2022-10-17T03:33:32;101688.56;;;11.55;89.66
73558;BME280;61829;53.286;10.434;2022-10-17T03:35:58;101688.91;;;11.52;89.69
73558;BME280;61829;53.286;10.434;2022-10-17T03:38:25;101679.31;;;11.50;89.89
73558;BME280;61829;53.286;10.434;2022-10-17T03:40:54;101681.47;;;11.46;90.06
73558;BME280;61829;53.286;10.434;2022-10-17T03:43:21;101676.25;;;11.44;90.78
73558;BME280;61829;53.286;10.434;2022-10-17T03:45:46;101679.94;;;11.43;91.07
73558;BME280;61829;53.286;10.434;2022-10-17T03:48:12;101684.50;;;11.43;90.60
73558;BME280;61829;53.286;10.434;2022-10-17T03:50:38;101690.25;;;11.40;90.35
73558;BME280;61829;53.286;10.434;2022-10-17T03:53:04;101687.75;;;11.38;90.46
73558;BME280;61829;53.286;10.434;2022-10-17T03:55:30;101694.13;;;11.37;90.58
73558;BME280;61829;53.286;10.434;2022-10-17T03:57:56;101687.88;;;11.37;90.57
73558;BME280;61829;53.286;10.434;2022-10-17T04:00:22;101681.81;;;11.35;90.47
73558;BME280;61829;53.286;10.434;2022-10-17T04:02:47;101689.25;;;11.33;90.22
73558;BME280;61829;53.286;10.434;2022-10-17T04:05:13;101686.72;;;11.31;90.30
73558;BME280;61829;53.286;10.434;2022-10-17T04:07:39;101686.91;;;11.30;90.50
73558;BME280;61829;53.286;10.434;2022-10-17T04:10:05;101682.84;;;11.26;90.56
73558;BME280;61829;53.286;10.434;2022-10-17T04:12:32;101678.78;;;11.21;89.99
73558;BME280;61829;53.286;10.434;2022-10-17T04:14:58;101684.88;;;11.15;90.41
73558;BME280;61829;53.286;10.434;2022-10-17T04:17:25;101686.88;;;11.13;90.31
73558;BME280;61829;53.286;10.434;2022-10-17T04:19:51;101671.88;;;11.11;90.58
73558;BME280;61829;53.286;10.434;2022-10-17T04:22:17;101679.47;;;11.07;90.66
73558;BME280;61829;53.286;10.434;2022-10-17T04:24:42;101677.09;;;11.04;90.63
73558;BME280;61829;53.286;10.434;2022-10-17T04:27:09;101683.50;;;11.03;90.62
73558;BME280;61829;53.286;10.434;2022-10-17T04:29:35;101679.44;;;10.99;90.33
73558;BME280;61829;53.286;10.434;2022-10-17T04:32:01;101680.78;;;10.95;90.69
73558;BME280;61829;53.286;10.434;2022-10-17T04:34:26;101683.66;;;10.93;90.57
73558;BME280;61829;53.286;10.434;2022-10-17T04:36:53;101684.00;;;10.90;90.99
73558;BME280;61829;53.286;10.434;2022-10-17T04:39:18;101682.47;;;10.88;90.96
73558;BME280;61829;53.286;10.434;2022-10-17T04:41:44;101679.09;;;10.86;90.57
73558;BME280;61829;53.286;10.434;2022-10-17T04:44:10;101672.00;;;10.85;90.22
73558;BME280;61829;53.286;10.434;2022-10-17T04:46:36;101671.47;;;10.81;90.81
73558;BME280;61829;53.286;10.434;2022-10-17T04:49:02;101664.59;;;10.78;90.63
73558;BME280;61829;53.286;10.434;2022-10-17T04:51:28;101665.91;;;10.74;90.69
73558;BME280;61829;53.286;10.434;2022-10-17T04:53:53;101664.25;;;10.73;91.25
73558;BME280;61829;53.286;10.434;2022-10-17T04:56:21;101654.13;;;10.67;91.78
73558;BME280;61829;53.286;10.434;2022-10-17T04:58:49;101661.66;;;10.64;91.56
73558;BME280;61829;53.286;10.434;2022-10-17T05:01:18;101657.31;;;10.63;91.43
73558;BME280;61829;53.286;10.434;2022-10-17T05:03:44;101656.63;;;10.61;91.71
73558;BME280;61829;53.286;10.434;2022-10-17T05:06:19;101659.63;;;10.57;92.01
73558;BME280;61829;53.286;10.434;2022-10-17T05:08:46;101661.50;;;10.57;92.02
73558;BME280;61829;53.286;10.434;2022-10-17T05:11:26;101657.28;;;10.54;91.65
73558;BME280;61829;53.286;10.434;2022-10-17T05:13:54;101657.59;;;10.51;91.85
73558;BME280;61829;53.286;10.434;2022-10-17T05:16:20;101651.38;;;10.51;91.88
73558;BME280;61829;53.286;10.434;2022-10-17T05:18:52;101656.91;;;10.49;91.59
73558;BME280;61829;53.286;10.434;2022-10-17T05:21:22;101649.84;;;10.48;91.73
73558;BME280;61829;53.286;10.434;2022-10-17T05:23:48;101650.19;;;10.45;91.28
73558;BME280;61829;53.286;10.434;2022-10-17T05:26:15;101651.19;;;10.44;91.25
73558;BME280;61829;53.286;10.434;2022-10-17T05:28:41;101648.66;;;10.43;90.71
73558;BME280;61829;53.286;10.434;2022-10-17T05:31:09;101654.38;;;10.40;90.95
73558;BME280;61829;53.286;10.434;2022-10-17T05:33:35;101649.47;;;10.35;90.96
73558;BME280;61829;53.286;10.434;2022-10-17T05:36:03;101657.72;;;10.33;90.97
73558;BME280;61829;53.286;10.434;2022-10-17T05:38:29;101652.66;;;10.30;90.83
73558;BME280;61829;53.286;10.434;2022-10-17T05:41:03;101650.97;;;10.29;91.75
73558;BME280;61829;53.286;10.434;2022-10-17T05:43:30;101646.59;;;10.28;91.75
73558;BME280;61829;53.286;10.434;2022-10-17T05:45:56;101645.47;;;10.39;93.91
73558;BME280;61829;53.286;10.434;2022-10-17T05:48:23;101650.34;;;10.44;94.20
73558;BME280;61829;53.286;10.434;2022-10-17T05:51:00;101642.94;;;10.46;94.23
73558;BME280;61829;53.286;10.434;2022-10-17T05:53:29;101646.03;;;10.59;95.90
73558;BME280;61829;53.286;10.434;2022-10-17T05:55:57;101656.81;;;10.67;95.96
73558;BME280;61829;53.286;10.434;2022-10-17T05:58:23;101655.97;;;10.75;96.19
73558;BME280;61829;53.286;10.434;2022-10-17T06:00:49;101648.41;;;10.78;95.86
73558;BME280;61829;53.286;10.434;2022-10-17T06:03:15;101655.31;;;10.81;95.64
73558;BME280;61829;53.286;10.434;2022-10-17T06:05:41;101653.16;;;10.85;95.79
73558;BME280;61829;53.286;10.434;2022-10-17T06:08:07;101649.78;;;10.91;96.13
73558;BME280;61829;53.286;10.434;2022-10-17T06:10:33;101652.97;;;10.94;96.38
73558;BME280;61829;53.286;10.434;2022-10-17T06:12:59;101656.16;;;10.98;95.78
73558;BME280;61829;53.286;10.434;2022-10-17T06:15:25;101661.91;;;11.03;95.94
73558;BME280;61829;53.286;10.434;2022-10-17T06:17:50;101668.69;;;11.07;95.85
73558;BME280;61829;53.286;10.434;2022-10-17T06:20:16;101674.56;;;11.11;95.75
73558;BME280;61829;53.286;10.434;2022-10-17T06:22:42;101672.38;;;11.14;95.67
73558;BME280;61829;53.286;10.434;2022-10-17T06:25:08;101674.72;;;11.26;96.30
73558;BME280;61829;53.286;10.434;2022-10-17T06:27:36;101682.84;;;11.34;96.45
73558;BME280;61829;53.286;10.434;2022-10-17T06:30:02;101681.47;;;11.46;96.42
73558;BME280;61829;53.286;10.434;2022-10-17T06:32:28;101682.16;;;11.56;96.17
73558;BME280;61829;53.286;10.434;2022-10-17T06:34:54;101675.72;;;11.65;95.73
73558;BME280;61829;53.286;10.434;2022-10-17T06:37:20;101687.19;;;11.76;95.55
73558;BME280;61829;53.286;10.434;2022-10-17T06:39:46;101688.16;;;11.83;95.44
73558;BME280;61829;53.286;10.434;2022-10-17T06:42:12;101681.78;;;11.92;95.49
73558;BME280;61829;53.286;10.434;2022-10-17T06:44:38;101679.22;;;11.99;95.20
73558;BME280;61829;53.286;10.434;2022-10-17T06:47:05;101686.97;;;12.10;94.81
73558;BME280;61829;53.286;10.434;2022-10-17T06:49:30;101686.75;;;12.20;94.73
73558;BME280;61829;53.286;10.434;2022-10-17T06:51:59;101682.31;;;12.35;94.20
73558;BME280;61829;53.286;10.434;2022-10-17T06:54:25;101675.78;;;12.61;93.48
73558;BME280;61829;53.286;10.434;2022-10-17T06:56:52;101677.25;;;12.94;92.14
73558;BME280;61829;53.286;10.434;2022-10-17T06:59:18;101682.94;;;13.31;90.51
73558;BME280;61829;53.286;10.434;2022-10-17T07:01:44;101678.16;;;13.70;88.77
73558;BME280;61829;53.286;10.434;2022-10-17T07:04:10;101671.53;;;14.03;87.14
73558;BME280;61829;53.286;10.434;2022-10-17T07:06:36;101659.56;;;14.42;85.49
73558;BME280;61829;53.286;10.434;2022-10-17T07:09:03;101660.44;;;14.78;84.19
73558;BME280;61829;53.286;10.434;2022-10-17T07:11:32;101666.00;;;15.13;82.75
73558;BME280;61829;53.286;10.434;2022-10-17T07:13:59;101672.94;;;15.44;81.28
73558;BME280;61829;53.286;10.434;2022-10-17T07:16:24;101683.25;;;15.77;80.37
73558;BME280;61829;53.286;10.434;2022-10-17T07:18:51;101676.09;;;15.97;79.19
73558;BME280;61829;53.286;10.434;2022-10-17T07:21:17;101687.94;;;16.24;78.20
73558;BME280;61829;53.286;10.434;2022-10-17T07:23:43;101673.22;;;16.53;77.15
73558;BME280;61829;53.286;10.434;2022-10-17T07:26:13;101679.84;;;16.79;76.38
73558;BME280;61829;53.286;10.434;2022-10-17T07:28:42;101672.09;;;16.89;76.01
73558;BME280;61829;53.286;10.434;2022-10-17T07:31:10;101669.84;;;17.13;75.18
73558;BME280;61829;53.286;10.434;2022-10-17T07:33:37;101667.78;;;17.41;74.35
73558;BME280;61829;53.286;10.434;2022-10-17T07:36:04;101676.53;;;17.63;74.00
73558;BME280;61829;53.286;10.434;2022-10-17T07:38:30;101677.84;;;17.81;72.91
73558;BME280;61829;53.286;10.434;2022-10-17T07:40:59;101678.84;;;18.00;72.84
73558;BME280;61829;53.286;10.434;2022-10-17T07:43:26;101686.81;;;17.94;72.44
73558;BME280;61829;53.286;10.434;2022-10-17T07:45:53;101681.16;;;17.96;72.28
73558;BME280;61829;53.286;10.434;2022-10-17T07:48:21;101678.25;;;17.84;72.53
73558;BME280;61829;53.286;10.434;2022-10-17T07:50:47;101686.63;;;17.96;72.27
73558;BME280;61829;53.286;10.434;2022-10-17T07:53:13;101690.38;;;17.88;72.61
73558;BME280;61829;53.286;10.434;2022-10-17T07:55:40;101687.88;;;17.80;72.54
73558;BME280;61829;53.286;10.434;2022-10-17T07:58:07;101682.00;;;17.63;73.00
73558;BME280;61829;53.286;10.434;2022-10-17T08:00:34;101687.91;;;17.47;73.54
73558;BME280;61829;53.286;10.434;2022-10-17T08:03:01;101694.59;;;17.44;74.08
73558;BME280;61829;53.286;10.434;2022-10-17T08:05:28;101679.47;;;17.35;74.25
73558;BME280;61829;53.286;10.434;2022-10-17T08:07:54;101690.19;;;17.37;74.38
73558;BME280;61829;53.286;10.434;2022-10-17T08:10:21;101684.94;;;17.62;74.09
73558;BME280;61829;53.286;10.434;2022-10-17T08:12:57;101685.16;;;17.87;73.69
73558;BME280;61829;53.286;10.434;2022-10-17T08:15:24;101677.75;;;18.14;71.89
73558;BME280;61829;53.286;10.434;2022-10-17T08:17:51;101686.09;;;18.32;72.13
73558;BME280;61829;53.286;10.434;2022-10-17T08:20:20;101685.19;;;18.52;71.72
73558;BME280;61829;53.286;10.434;2022-10-17T08:22:52;101677.19;;;18.50;70.94
73558;BME280;61829;53.286;10.434;2022-10-17T08:25:18;101682.25;;;18.47;71.28
73558;BME280;61829;53.286;10.434;2022-10-17T08:27:45;101688.78;;;18.46;71.28
73558;BME280;61829;53.286;10.434;2022-10-17T08:30:10;101692.28;;;18.59;71.01
73558;BME280;61829;53.286;10.434;2022-10-17T08:32:36;101683.88;;;18.61;71.50
73558;BME280;61829;53.286;10.434;2022-10-17T08:35:02;101682.47;;;18.52;71.49
73558;BME280;61829;53.286;10.434;2022-10-17T08:37:28;101686.66;;;18.48;71.97
73558;BME280;61829;53.286;10.434;2022-10-17T08:39:55;101683.97;;;18.41;72.44
73558;BME280;61829;53.286;10.434;2022-10-17T08:47:45;101666.09;;;18.52;72.60
73558;BME280;61829;53.286;10.434;2022-10-17T08:50:27;101657.06;;;18.51;72.50
73558;BME280;61829;53.286;10.434;2022-10-17T08:53:07;101662.91;;;18.48;72.93
73558;BME280;61829;53.286;10.434;2022-10-17T08:55:41;101659.34;;;18.54;72.90
73558;BME280;61829;53.286;10.434;2022-10-17T08:58:22;101648.38;;;18.61;72.46
73558;BME280;61829;53.286;10.434;2022-10-17T09:01:07;101642.50;;;18.64;72.50
73558;BME280;61829;53.286;10.434;2022-10-17T09:06:26;101665.97;;;18.78;72.90
73558;BME280;61829;53.286;10.434;2022-10-17T09:12:23;101649.94;;;18.89;72.53
73558;BME280;61829;53.286;10.434;2022-10-17T09:20:46;101658.31;;;19.25;71.59
73558;BME280;61829;53.286;10.434;2022-10-17T09:23:27;101664.25;;;19.41;71.40
73558;BME280;61829;53.286;10.434;2022-10-17T09:25:57;101664.53;;;19.58;71.19
73558;BME280;61829;53.286;10.434;2022-10-17T09:28:33;101666.81;;;19.67;70.53
73558;BME280;61829;53.286;10.434;2022-10-17T09:33:37;101660.50;;;19.85;69.60
73558;BME280;61829;53.286;10.434;2022-10-17T09:36:07;101666.38;;;19.89;69.93
73558;BME280;61829;53.286;10.434;2022-10-17T09:38:44;101663.94;;;19.99;70.14
73558;BME280;61829;53.286;10.434;2022-10-17T09:41:19;101665.47;;;20.13;69.59
73558;BME280;61829;53.286;10.434;2022-10-17T09:43:45;101668.28;;;20.25;69.26
73558;BME280;61829;53.286;10.434;2022-10-17T09:46:27;101668.59;;;20.35;69.07
73558;BME280;61829;53.286;10.434;2022-10-17T09:49:05;101667.66;;;20.41;68.50
73558;BME280;61829;53.286;10.434;2022-10-17T09:51:37;101668.59;;;20.35;68.44
73558;BME280;61829;53.286;10.434;2022-10-17T09:54:21;101665.84;;;20.35;69.08
73558;BME280;61829;53.286;10.434;2022-10-17T09:59:34;101662.72;;;20.32;68.81
73558;BME280;61829;53.286;10.434;2022-10-17T10:02:21;101673.44;;;20.33;69.12
73558;BME280;61829;53.286;10.434;2022-10-17T10:05:04;101675.88;;;20.41;68.77
73558;BME280;61829;53.286;10.434;2022-10-17T10:07:37;101685.22;;;20.52;69.29
73558;BME280;61829;53.286;10.434;2022-10-17T10:10:23;101672.44;;;20.65;69.47
73558;BME280;61829;53.286;10.434;2022-10-17T10:15:40;101682.06;;;20.85;68.29
73558;BME280;61829;53.286;10.434;2022-10-17T10:18:31;101682.44;;;20.89;67.44
73558;BME280;61829;53.286;10.434;2022-10-17T10:21:20;101677.00;;;21.01;67.34
73558;BME280;61829;53.286;10.434;2022-10-17T10:29:03;101685.59;;;21.04;67.66
73558;BME280;61829;53.286;10.434;2022-10-17T10:31:33;101686.56;;;21.10;67.92
73558;BME280;61829;53.286;10.434;2022-10-17T10:34:12;101689.78;;;21.19;68.00
73558;BME280;61829;53.286;10.434;2022-10-17T10:36:54;101688.97;;;21.30;67.88
73558;BME280;61829;53.286;10.434;2022-10-17T10:39:44;101679.19;;;21.34;67.19
73558;BME280;61829;53.286;10.434;2022-10-17T10:42:33;101675.63;;;21.34;66.28
73558;BME280;61829;53.286;10.434;2022-10-17T10:47:30;101676.41;;;21.41;67.63
73558;BME280;61829;53.286;10.434;2022-10-17T10:53:08;101668.44;;;21.63;66.74
73558;BME280;61829;53.286;10.434;2022-10-17T11:00:45;101673.09;;;21.74;66.10
73558;BME280;61829;53.286;10.434;2022-10-17T11:03:16;101675.22;;;21.72;66.28
73558;BME280;61829;53.286;10.434;2022-10-17T11:06:02;101676.53;;;21.69;66.09
73558;BME280;61829;53.286;10.434;2022-10-17T11:11:08;101677.25;;;21.65;66.02
73558;BME280;61829;53.286;10.434;2022-10-17T11:13:52;101688.09;;;21.60;67.54
73558;BME280;61829;53.286;10.434;2022-10-17T11:16:36;101691.31;;;21.57;67.08
73558;BME280;61829;53.286;10.434;2022-10-17T11:19:15;101697.41;;;21.59;66.87
73558;BME280;61829;53.286;10.434;2022-10-17T11:21:48;101695.13;;;21.56;67.02
73558;BME280;61829;53.286;10.434;2022-10-17T11:24:32;101692.25;;;21.50;67.43
73558;BME280;61829;53.286;10.434;2022-10-17T11:27:01;101686.78;;;21.50;67.71
73558;BME280;61829;53.286;10.434;2022-10-17T11:29:34;101697.28;;;21.53;67.83
73558;BME280;61829;53.286;10.434;2022-10-17T11:35:50;101703.97;;;21.58;67.42
73558;BME280;61829;53.286;10.434;2022-10-17T11:40:48;101704.69;;;21.65;67.59
73558;BME280;61829;53.286;10.434;2022-10-17T11:45:47;101692.28;;;21.74;66.57
73558;BME280;61829;53.286;10.434;2022-10-17T11:48:28;101686.81;;;21.74;66.34
73558;BME280;61829;53.286;10.434;2022-10-17T11:51:11;101683.22;;;21.73;66.83
73558;BME280;61829;53.286;10.434;2022-10-17T11:56:25;101685.13;;;21.73;67.41
73558;BME280;61829;53.286;10.434;2022-10-17T12:01:56;101668.78;;;21.66;67.26
73558;BME280;61829;53.286;10.434;2022-10-17T12:09:51;101669.38;;;21.57;67.44
73558;BME280;61829;53.286;10.434;2022-10-17T12:12:25;101673.66;;;21.52;68.09
73558;BME280;61829;53.286;10.434;2022-10-17T12:14:51;101670.94;;;21.52;68.84
73558;BME280;61829;53.286;10.434;2022-10-17T12:22:51;101695.72;;;21.46;68.95
73558;BME280;61829;53.286;10.434;2022-10-17T12:25:18;101700.25;;;21.40;69.47
73558;BME280;61829;53.286;10.434;2022-10-17T12:27:46;101697.34;;;21.35;69.08
73558;BME280;61829;53.286;10.434;2022-10-17T12:30:26;101702.69;;;21.30;69.52
73558;BME280;61829;53.286;10.434;2022-10-17T12:35:29;101707.06;;;21.19;69.66
73558;BME280;61829;53.286;10.434;2022-10-17T12:38:00;101706.09;;;21.14;69.93
73558;BME280;61829;53.286;10.434;2022-10-17T12:43:49;101702.88;;;21.17;70.03
73558;BME280;61829;53.286;10.434;2022-10-17T12:45:55;101702.81;;;21.23;70.48
73558;BME280;61829;53.286;10.434;2022-10-17T12:56:14;101723.25;;;21.39;69.68
73558;BME280;61829;53.286;10.434;2022-10-17T12:58:50;101712.28;;;21.39;69.51
73558;BME280;61829;53.286;10.434;2022-10-17T13:01:29;101729.56;;;21.40;69.91
73558;BME280;61829;53.286;10.434;2022-10-17T13:03:57;101727.69;;;21.40;69.50
73558;BME280;61829;53.286;10.434;2022-10-17T13:06:29;101736.78;;;21.34;68.98
73558;BME280;61829;53.286;10.434;2022-10-17T13:09:06;101736.41;;;21.30;69.25
73558;BME280;61829;53.286;10.434;2022-10-17T13:11:35;101732.34;;;21.21;68.83
73558;BME280;61829;53.286;10.434;2022-10-17T13:14:08;101748.28;;;21.13;69.63
73558;BME280;61829;53.286;10.434;2022-10-17T13:16:37;101745.19;;;21.09;69.52
73558;BME280;61829;53.286;10.434;2022-10-17T13:19:12;101748.38;;;21.06;69.47
73558;BME280;61829;53.286;10.434;2022-10-17T13:21:58;101762.41;;;20.98;69.71
73558;BME280;61829;53.286;10.434;2022-10-17T13:24:37;101769.88;;;20.91;70.12
73558;BME280;61829;53.286;10.434;2022-10-17T13:27:20;101766.78;;;20.87;70.06
73558;BME280;61829;53.286;10.434;2022-10-17T13:29:45;101765.78;;;20.81;70.46
73558;BME280;61829;53.286;10.434;2022-10-17T13:32:11;101772.78;;;20.77;70.27
73558;BME280;61829;53.286;10.434;2022-10-17T13:34:37;101765.47;;;20.71;70.48
73558;BME280;61829;53.286;10.434;2022-10-17T13:37:05;101763.44;;;20.67;70.07
73558;BME280;61829;53.286;10.434;2022-10-17T13:39:39;101769.59;;;20.62;70.55
73558;BME280;61829;53.286;10.434;2022-10-17T13:42:06;101776.16;;;20.61;70.09
73558;BME280;61829;53.286;10.434;2022-10-17T13:44:41;101783.97;;;20.57;70.57
73558;BME280;61829;53.286;10.434;2022-10-17T13:49:48;101779.63;;;20.50;71.02
73558;BME280;61829;53.286;10.434;2022-10-17T13:52:20;101796.50;;;20.47;71.50
73558;BME280;61829;53.286;10.434;2022-10-17T13:54:48;101800.75;;;20.42;71.24
73558;BME280;61829;53.286;10.434;2022-10-17T13:57:27;101815.09;;;20.38;71.41
73558;BME280;61829;53.286;10.434;2022-10-17T13:59:54;101808.22;;;20.35;71.03
73558;BME280;61829;53.286;10.434;2022-10-17T14:02:27;101807.81;;;20.32;71.33
73558;BME280;61829;53.286;10.434;2022-10-17T14:05:14;101792.28;;;20.26;71.64
73558;BME280;61829;53.286;10.434;2022-10-17T14:07:56;101780.72;;;20.24;72.14
73558;BME280;61829;53.286;10.434;2022-10-17T14:12:52;101796.13;;;20.18;74.26
73558;BME280;61829;53.286;10.434;2022-10-17T14:15:21;101791.38;;;20.13;74.70
73558;BME280;61829;53.286;10.434;2022-10-17T14:17:54;101797.75;;;20.07;75.34
73558;BME280;61829;53.286;10.434;2022-10-17T14:20:21;101797.78;;;20.01;75.10
73558;BME280;61829;53.286;10.434;2022-10-17T14:22:48;101797.22;;;19.92;75.99
73558;BME280;61829;53.286;10.434;2022-10-17T14:25:32;101791.59;;;19.87;76.17
73558;BME280;61829;53.286;10.434;2022-10-17T14:30:33;101772.72;;;19.79;76.73
73558;BME280;61829;53.286;10.434;2022-10-17T14:33:02;101764.34;;;19.73;77.18
73558;BME280;61829;53.286;10.434;2022-10-17T14:35:30;101788.38;;;19.65;78.52
73558;BME280;61829;53.286;10.434;2022-10-17T14:37:58;101793.66;;;19.60;79.21
73558;BME280;61829;53.286;10.434;2022-10-17T14:40:26;101783.38;;;19.55;78.83
73558;BME280;61829;53.286;10.434;2022-10-17T14:42:55;101772.69;;;19.54;79.69
73558;BME280;61829;53.286;10.434;2022-10-17T14:45:30;101766.81;;;19.50;79.80
73558;BME280;61829;53.286;10.434;2022-10-17T14:48:17;101772.50;;;19.48;79.80
73558;BME280;61829;53.286;10.434;2022-10-17T14:53:34;101794.00;;;19.45;80.63
73558;BME280;61829;53.286;10.434;2022-10-17T14:56:03;101802.41;;;19.43;80.29
73558;BME280;61829;53.286;10.434;2022-10-17T14:58:32;101816.25;;;19.42;80.57
73558;BME280;61829;53.286;10.434;2022-10-17T15:01:00;101821.72;;;19.42;80.97
73558;BME280;61829;53.286;10.434;2022-10-17T15:03:26;101831.84;;;19.41;80.60
73558;BME280;61829;53.286;10.434;2022-10-17T15:05:53;101835.00;;;19.38;81.17